sensor_id;sensor_type;location;lat;lon;timestamp;P1;P2;P0
73305;PMS5003;61530;51.158;0.880;2023-05-07T00:00:39;26;25;13
73305;PMS5003;61530;51.158;0.880;2023-05-07T00:01:42;24;24;14
73305;PMS5003;61530;51.158;0.880;2023-05-07T00:02:46;30;28;15
73305;PMS5003;61530;51.158;0.880;2023-05-07T00:03:49;25;19;11
73305;PMS5003;61530;51.158;0.880;2023-05-07T00:04:55;27;24;12
73305;PMS5003;61530;51.158;0.880;2023-05-07T00:05:58;26;25;14
73305;PMS5003;61530;51.158;0.880;2023-05-07T00:07:02;32;29;15
73305;PMS5003;61530;51.158;0.880;2023-05-07T00:08:05;25;23;13
73305;PMS5003;61530;51.158;0.880;2023-05-07T00:09:11;26;23;13
73305;PMS5003;61530;51.158;0.880;2023-05-07T00:10:14;23;20;13
73305;PMS5003;61530;51.158;0.880;2023-05-07T00:11:18;30;26;16
73305;PMS5003;61530;51.158;0.880;2023-05-07T00:12:21;23;23;15
73305;PMS5003;61530;51.158;0.880;2023-05-07T00:13:27;27;26;14
73305;PMS5003;61530;51.158;0.880;2023-05-07T00:14:30;21;20;13
73305;PMS5003;61530;51.158;0.880;2023-05-07T00:15:34;25;21;14
73305;PMS5003;61530;51.158;0.880;2023-05-07T00:16:37;22;20;14
73305;PMS5003;61530;51.158;0.880;2023-05-07T00:17:43;23;23;15
73305;PMS5003;61530;51.158;0.880;2023-05-07T00:18:46;21;21;14
73305;PMS5003;61530;51.158;0.880;2023-05-07T00:19:50;22;20;14
73305;PMS5003;61530;51.158;0.880;2023-05-07T00:20:53;22;21;13
73305;PMS5003;61530;51.158;0.880;2023-05-07T00:21:59;31;27;16
73305;PMS5003;61530;51.158;0.880;2023-05-07T00:23:02;22;22;13
73305;PMS5003;61530;51.158;0.880;2023-05-07T00:24:06;26;23;14
73305;PMS5003;61530;51.158;0.880;2023-05-07T00:25:09;33;29;15
73305;PMS5003;61530;51.158;0.880;2023-05-07T00:26:15;26;24;15
73305;PMS5003;61530;51.158;0.880;2023-05-07T00:27:18;26;23;16
73305;PMS5003;61530;51.158;0.880;2023-05-07T00:28:22;30;26;16
73305;PMS5003;61530;51.158;0.880;2023-05-07T00:29:25;29;27;15
73305;PMS5003;61530;51.158;0.880;2023-05-07T00:30:31;21;21;14
73305;PMS5003;61530;51.158;0.880;2023-05-07T00:31:34;30;29;14
73305;PMS5003;61530;51.158;0.880;2023-05-07T00:32:38;23;21;12
73305;PMS5003;61530;51.158;0.880;2023-05-07T00:33:41;29;28;18
73305;PMS5003;61530;51.158;0.880;2023-05-07T00:34:47;29;28;15
73305;PMS5003;61530;51.158;0.880;2023-05-07T00:35:50;30;28;15
73305;PMS5003;61530;51.158;0.880;2023-05-07T00:36:54;24;22;15
73305;PMS5003;61530;51.158;0.880;2023-05-07T00:37:57;23;22;15
73305;PMS5003;61530;51.158;0.880;2023-05-07T00:39:03;29;25;14
73305;PMS5003;61530;51.158;0.880;2023-05-07T00:40:07;29;24;16
73305;PMS5003;61530;51.158;0.880;2023-05-07T00:41:10;28;22;14
73305;PMS5003;61530;51.158;0.880;2023-05-07T00:42:13;28;27;17
73305;PMS5003;61530;51.158;0.880;2023-05-07T00:43:19;24;22;14
73305;PMS5003;61530;51.158;0.880;2023-05-07T00:44:22;26;25;15
73305;PMS5003;61530;51.158;0.880;2023-05-07T00:45:26;23;23;14
73305;PMS5003;61530;51.158;0.880;2023-05-07T00:46:29;26;25;16
73305;PMS5003;61530;51.158;0.880;2023-05-07T00:47:35;24;23;14
73305;PMS5003;61530;51.158;0.880;2023-05-07T00:48:38;23;19;13
73305;PMS5003;61530;51.158;0.880;2023-05-07T00:49:42;27;25;15
73305;PMS5003;61530;51.158;0.880;2023-05-07T00:50:45;29;25;15
73305;PMS5003;61530;51.158;0.880;2023-05-07T00:51:51;27;26;14
73305;PMS5003;61530;51.158;0.880;2023-05-07T00:52:54;23;23;14
73305;PMS5003;61530;51.158;0.880;2023-05-07T00:53:59;28;28;17
73305;PMS5003;61530;51.158;0.880;2023-05-07T00:55:02;27;26;13
73305;PMS5003;61530;51.158;0.880;2023-05-07T00:56:07;24;23;15
73305;PMS5003;61530;51.158;0.880;2023-05-07T00:57:10;26;22;14
73305;PMS5003;61530;51.158;0.880;2023-05-07T00:58:14;32;31;16
73305;PMS5003;61530;51.158;0.880;2023-05-07T00:59:17;26;25;14
73305;PMS5003;61530;51.158;0.880;2023-05-07T01:00:23;24;24;13
73305;PMS5003;61530;51.158;0.880;2023-05-07T01:01:26;30;26;17
73305;PMS5003;61530;51.158;0.880;2023-05-07T01:02:30;27;24;15
73305;PMS5003;61530;51.158;0.880;2023-05-07T01:03:33;30;27;17
73305;PMS5003;61530;51.158;0.880;2023-05-07T01:04:39;27;25;15
73305;PMS5003;61530;51.158;0.880;2023-05-07T01:05:42;29;28;15
73305;PMS5003;61530;51.158;0.880;2023-05-07T01:06:46;30;28;15
73305;PMS5003;61530;51.158;0.880;2023-05-07T01:07:49;23;21;14
73305;PMS5003;61530;51.158;0.880;2023-05-07T01:08:55;28;28;15
73305;PMS5003;61530;51.158;0.880;2023-05-07T01:09:58;28;26;17
73305;PMS5003;61530;51.158;0.880;2023-05-07T01:11:02;24;22;14
73305;PMS5003;61530;51.158;0.880;2023-05-07T01:12:05;29;27;16
73305;PMS5003;61530;51.158;0.880;2023-05-07T01:13:11;29;25;15
73305;PMS5003;61530;51.158;0.880;2023-05-07T01:14:14;24;23;16
73305;PMS5003;61530;51.158;0.880;2023-05-07T01:15:18;26;25;16
73305;PMS5003;61530;51.158;0.880;2023-05-07T01:16:21;26;25;17
73305;PMS5003;61530;51.158;0.880;2023-05-07T01:17:27;28;24;15
73305;PMS5003;61530;51.158;0.880;2023-05-07T01:18:30;27;24;15
73305;PMS5003;61530;51.158;0.880;2023-05-07T01:19:34;23;22;14
73305;PMS5003;61530;51.158;0.880;2023-05-07T01:20:37;30;28;18
73305;PMS5003;61530;51.158;0.880;2023-05-07T01:21:43;31;30;16
73305;PMS5003;61530;51.158;0.880;2023-05-07T01:22:46;31;27;17
73305;PMS5003;61530;51.158;0.880;2023-05-07T01:23:50;24;22;15
73305;PMS5003;61530;51.158;0.880;2023-05-07T01:24:53;29;25;15
73305;PMS5003;61530;51.158;0.880;2023-05-07T01:25:59;30;27;15
73305;PMS5003;61530;51.158;0.880;2023-05-07T01:27:02;28;25;17
73305;PMS5003;61530;51.158;0.880;2023-05-07T01:28:06;24;22;15
73305;PMS5003;61530;51.158;0.880;2023-05-07T01:29:09;31;27;15
73305;PMS5003;61530;51.158;0.880;2023-05-07T01:30:15;29;26;17
73305;PMS5003;61530;51.158;0.880;2023-05-07T01:31:18;30;24;13
73305;PMS5003;61530;51.158;0.880;2023-05-07T01:32:23;27;26;15
73305;PMS5003;61530;51.158;0.880;2023-05-07T01:33:25;27;25;14
73305;PMS5003;61530;51.158;0.880;2023-05-07T01:34:31;32;29;18
73305;PMS5003;61530;51.158;0.880;2023-05-07T01:35:37;29;28;17
73305;PMS5003;61530;51.158;0.880;2023-05-07T01:36:38;35;31;16
73305;PMS5003;61530;51.158;0.880;2023-05-07T01:37:41;29;26;16
73305;PMS5003;61530;51.158;0.880;2023-05-07T01:38:47;24;24;16
73305;PMS5003;61530;51.158;0.880;2023-05-07T01:39:50;30;28;15
73305;PMS5003;61530;51.158;0.880;2023-05-07T01:40:54;24;21;15
73305;PMS5003;61530;51.158;0.880;2023-05-07T01:41:57;31;31;16
73305;PMS5003;61530;51.158;0.880;2023-05-07T01:43:03;27;27;14
73305;PMS5003;61530;51.158;0.880;2023-05-07T01:44:06;34;31;19
73305;PMS5003;61530;51.158;0.880;2023-05-07T01:45:10;29;25;17
73305;PMS5003;61530;51.158;0.880;2023-05-07T01:46:13;29;27;18
73305;PMS5003;61530;51.158;0.880;2023-05-07T01:47:19;31;31;17
73305;PMS5003;61530;51.158;0.880;2023-05-07T01:48:22;31;31;18
73305;PMS5003;61530;51.158;0.880;2023-05-07T01:49:26;26;24;17
73305;PMS5003;61530;51.158;0.880;2023-05-07T01:50:29;30;28;17
73305;PMS5003;61530;51.158;0.880;2023-05-07T01:51:35;26;24;17
73305;PMS5003;61530;51.158;0.880;2023-05-07T01:52:38;22;22;16
73305;PMS5003;61530;51.158;0.880;2023-05-07T01:53:42;28;27;14
73305;PMS5003;61530;51.158;0.880;2023-05-07T01:54:45;32;32;17
73305;PMS5003;61530;51.158;0.880;2023-05-07T01:55:51;28;26;15
73305;PMS5003;61530;51.158;0.880;2023-05-07T01:56:55;32;31;15
73305;PMS5003;61530;51.158;0.880;2023-05-07T01:57:58;31;29;19
73305;PMS5003;61530;51.158;0.880;2023-05-07T01:59:01;27;24;15
73305;PMS5003;61530;51.158;0.880;2023-05-07T02:00:07;29;28;15
73305;PMS5003;61530;51.158;0.880;2023-05-07T02:01:10;24;22;16
73305;PMS5003;61530;51.158;0.880;2023-05-07T02:02:14;29;29;16
73305;PMS5003;61530;51.158;0.880;2023-05-07T02:03:17;28;25;15
73305;PMS5003;61530;51.158;0.880;2023-05-07T02:04:23;30;27;17
73305;PMS5003;61530;51.158;0.880;2023-05-07T02:05:26;29;25;16
73305;PMS5003;61530;51.158;0.880;2023-05-07T02:06:30;27;25;18
73305;PMS5003;61530;51.158;0.880;2023-05-07T02:07:33;28;25;17
73305;PMS5003;61530;51.158;0.880;2023-05-07T02:08:39;31;29;14
73305;PMS5003;61530;51.158;0.880;2023-05-07T02:09:42;29;28;16
73305;PMS5003;61530;51.158;0.880;2023-05-07T02:10:46;36;31;18
73305;PMS5003;61530;51.158;0.880;2023-05-07T02:11:49;29;27;17
73305;PMS5003;61530;51.158;0.880;2023-05-07T02:12:55;28;28;17
73305;PMS5003;61530;51.158;0.880;2023-05-07T02:13:58;30;26;17
73305;PMS5003;61530;51.158;0.880;2023-05-07T02:15:02;34;33;19
73305;PMS5003;61530;51.158;0.880;2023-05-07T02:16:05;23;21;16
73305;PMS5003;61530;51.158;0.880;2023-05-07T02:17:11;35;26;15
73305;PMS5003;61530;51.158;0.880;2023-05-07T02:18:15;27;26;17
73305;PMS5003;61530;51.158;0.880;2023-05-07T02:19:18;29;28;18
73305;PMS5003;61530;51.158;0.880;2023-05-07T02:20:21;28;26;16
73305;PMS5003;61530;51.158;0.880;2023-05-07T02:21:27;38;33;18
73305;PMS5003;61530;51.158;0.880;2023-05-07T02:22:30;35;28;17
73305;PMS5003;61530;51.158;0.880;2023-05-07T02:23:34;37;29;16
73305;PMS5003;61530;51.158;0.880;2023-05-07T02:24:37;26;24;16
73305;PMS5003;61530;51.158;0.880;2023-05-07T02:25:43;29;26;17
73305;PMS5003;61530;51.158;0.880;2023-05-07T02:26:46;26;22;16
73305;PMS5003;61530;51.158;0.880;2023-05-07T02:27:50;29;25;15
73305;PMS5003;61530;51.158;0.880;2023-05-07T02:28:53;25;23;15
73305;PMS5003;61530;51.158;0.880;2023-05-07T02:29:59;36;31;18
73305;PMS5003;61530;51.158;0.880;2023-05-07T02:31:02;26;25;16
73305;PMS5003;61530;51.158;0.880;2023-05-07T02:32:06;31;31;16
73305;PMS5003;61530;51.158;0.880;2023-05-07T02:33:09;29;25;17
73305;PMS5003;61530;51.158;0.880;2023-05-07T02:34:15;31;25;15
73305;PMS5003;61530;51.158;0.880;2023-05-07T02:35:18;25;25;17
73305;PMS5003;61530;51.158;0.880;2023-05-07T02:36:22;26;24;16
73305;PMS5003;61530;51.158;0.880;2023-05-07T02:37:25;35;33;17
73305;PMS5003;61530;51.158;0.880;2023-05-07T02:38:31;29;28;15
73305;PMS5003;61530;51.158;0.880;2023-05-07T02:39:34;27;26;18
73305;PMS5003;61530;51.158;0.880;2023-05-07T02:40:38;35;29;17
73305;PMS5003;61530;51.158;0.880;2023-05-07T02:41:41;33;32;17
73305;PMS5003;61530;51.158;0.880;2023-05-07T02:42:47;37;36;20
73305;PMS5003;61530;51.158;0.880;2023-05-07T02:43:50;25;25;15
73305;PMS5003;61530;51.158;0.880;2023-05-07T02:44:54;34;34;17
73305;PMS5003;61530;51.158;0.880;2023-05-07T02:46:01;26;26;17
73305;PMS5003;61530;51.158;0.880;2023-05-07T02:47:03;25;24;16
73305;PMS5003;61530;51.158;0.880;2023-05-07T02:48:06;34;29;15
73305;PMS5003;61530;51.158;0.880;2023-05-07T02:49:10;27;24;16
73305;PMS5003;61530;51.158;0.880;2023-05-07T02:50:13;28;25;17
73305;PMS5003;61530;51.158;0.880;2023-05-07T02:51:19;25;25;17
73305;PMS5003;61530;51.158;0.880;2023-05-07T02:52:22;28;25;16
73305;PMS5003;61530;51.158;0.880;2023-05-07T02:53:26;27;25;16
73305;PMS5003;61530;51.158;0.880;2023-05-07T02:54:29;27;25;16
73305;PMS5003;61530;51.158;0.880;2023-05-07T02:55:35;32;31;18
73305;PMS5003;61530;51.158;0.880;2023-05-07T02:56:38;25;25;16
73305;PMS5003;61530;51.158;0.880;2023-05-07T02:57:42;35;27;15
73305;PMS5003;61530;51.158;0.880;2023-05-07T02:58:45;28;28;16
73305;PMS5003;61530;51.158;0.880;2023-05-07T02:59:51;25;23;15
73305;PMS5003;61530;51.158;0.880;2023-05-07T03:00:54;28;23;14
73305;PMS5003;61530;51.158;0.880;2023-05-07T03:01:58;30;29;19
73305;PMS5003;61530;51.158;0.880;2023-05-07T03:03:02;26;26;16
73305;PMS5003;61530;51.158;0.880;2023-05-07T03:04:07;32;29;16
73305;PMS5003;61530;51.158;0.880;2023-05-07T03:05:10;29;27;16
73305;PMS5003;61530;51.158;0.880;2023-05-07T03:06:14;25;23;14
73305;PMS5003;61530;51.158;0.880;2023-05-07T03:07:17;33;32;18
73305;PMS5003;61530;51.158;0.880;2023-05-07T03:08:24;32;29;17
73305;PMS5003;61530;51.158;0.880;2023-05-07T03:09:26;29;27;17
73305;PMS5003;61530;51.158;0.880;2023-05-07T03:10:30;31;28;17
73305;PMS5003;61530;51.158;0.880;2023-05-07T03:11:33;27;27;16
73305;PMS5003;61530;51.158;0.880;2023-05-07T03:12:39;30;25;15
73305;PMS5003;61530;51.158;0.880;2023-05-07T03:13:42;30;23;13
73305;PMS5003;61530;51.158;0.880;2023-05-07T03:14:46;31;25;16
73305;PMS5003;61530;51.158;0.880;2023-05-07T03:15:49;24;24;16
73305;PMS5003;61530;51.158;0.880;2023-05-07T03:16:55;29;23;14
73305;PMS5003;61530;51.158;0.880;2023-05-07T03:17:58;25;25;17
73305;PMS5003;61530;51.158;0.880;2023-05-07T03:19:02;32;26;15
73305;PMS5003;61530;51.158;0.880;2023-05-07T03:20:06;28;25;15
73305;PMS5003;61530;51.158;0.880;2023-05-07T03:21:11;27;26;15
73305;PMS5003;61530;51.158;0.880;2023-05-07T03:22:14;30;26;14
73305;PMS5003;61530;51.158;0.880;2023-05-07T03:23:18;24;24;14
73305;PMS5003;61530;51.158;0.880;2023-05-07T03:24:21;27;25;16
73305;PMS5003;61530;51.158;0.880;2023-05-07T03:25:27;33;31;17
73305;PMS5003;61530;51.158;0.880;2023-05-07T03:26:30;33;31;17
73305;PMS5003;61530;51.158;0.880;2023-05-07T03:27:34;24;22;14
73305;PMS5003;61530;51.158;0.880;2023-05-07T03:28:37;31;27;15
73305;PMS5003;61530;51.158;0.880;2023-05-07T03:29:43;29;26;15
73305;PMS5003;61530;51.158;0.880;2023-05-07T03:30:46;32;29;17
73305;PMS5003;61530;51.158;0.880;2023-05-07T03:31:50;29;28;16
73305;PMS5003;61530;51.158;0.880;2023-05-07T03:32:53;39;35;20
73305;PMS5003;61530;51.158;0.880;2023-05-07T03:33:59;28;27;16
73305;PMS5003;61530;51.158;0.880;2023-05-07T03:35:02;32;30;18
73305;PMS5003;61530;51.158;0.880;2023-05-07T03:36:06;28;26;16
73305;PMS5003;61530;51.158;0.880;2023-05-07T03:37:09;25;23;15
73305;PMS5003;61530;51.158;0.880;2023-05-07T03:38:15;28;26;13
73305;PMS5003;61530;51.158;0.880;2023-05-07T03:39:18;31;28;15
73305;PMS5003;61530;51.158;0.880;2023-05-07T03:40:22;28;28;17
73305;PMS5003;61530;51.158;0.880;2023-05-07T03:41:25;22;20;14
73305;PMS5003;61530;51.158;0.880;2023-05-07T03:42:31;26;24;16
73305;PMS5003;61530;51.158;0.880;2023-05-07T03:43:34;28;24;16
73305;PMS5003;61530;51.158;0.880;2023-05-07T03:44:38;25;25;16
73305;PMS5003;61530;51.158;0.880;2023-05-07T03:45:41;29;26;16
73305;PMS5003;61530;51.158;0.880;2023-05-07T03:46:47;25;25;16
73305;PMS5003;61530;51.158;0.880;2023-05-07T03:47:50;29;27;15
73305;PMS5003;61530;51.158;0.880;2023-05-07T03:48:54;32;29;17
73305;PMS5003;61530;51.158;0.880;2023-05-07T03:49:57;28;27;17
73305;PMS5003;61530;51.158;0.880;2023-05-07T03:51:03;30;29;18
73305;PMS5003;61530;51.158;0.880;2023-05-07T03:52:06;37;32;17
73305;PMS5003;61530;51.158;0.880;2023-05-07T03:53:10;29;27;17
73305;PMS5003;61530;51.158;0.880;2023-05-07T03:54:13;33;26;16
73305;PMS5003;61530;51.158;0.880;2023-05-07T03:55:19;26;25;14
73305;PMS5003;61530;51.158;0.880;2023-05-07T03:56:22;26;25;15
73305;PMS5003;61530;51.158;0.880;2023-05-07T03:57:26;30;28;18
73305;PMS5003;61530;51.158;0.880;2023-05-07T03:58:29;30;28;15
73305;PMS5003;61530;51.158;0.880;2023-05-07T03:59:35;28;28;16
73305;PMS5003;61530;51.158;0.880;2023-05-07T04:00:38;27;26;16
73305;PMS5003;61530;51.158;0.880;2023-05-07T04:01:42;27;26;16
73305;PMS5003;61530;51.158;0.880;2023-05-07T04:02:45;30;28;17
73305;PMS5003;61530;51.158;0.880;2023-05-07T04:03:51;31;26;13
73305;PMS5003;61530;51.158;0.880;2023-05-07T04:04:54;33;29;17
73305;PMS5003;61530;51.158;0.880;2023-05-07T04:05:58;28;28;16
73305;PMS5003;61530;51.158;0.880;2023-05-07T04:07:02;26;26;16
73305;PMS5003;61530;51.158;0.880;2023-05-07T04:08:07;28;28;17
73305;PMS5003;61530;51.158;0.880;2023-05-07T04:09:10;31;28;17
73305;PMS5003;61530;51.158;0.880;2023-05-07T04:10:14;31;30;16
73305;PMS5003;61530;51.158;0.880;2023-05-07T04:11:17;33;32;18
73305;PMS5003;61530;51.158;0.880;2023-05-07T04:12:23;27;24;14
73305;PMS5003;61530;51.158;0.880;2023-05-07T04:13:26;32;32;18
73305;PMS5003;61530;51.158;0.880;2023-05-07T04:14:30;37;33;19
73305;PMS5003;61530;51.158;0.880;2023-05-07T04:15:33;31;30;15
73305;PMS5003;61530;51.158;0.880;2023-05-07T04:16:39;30;28;16
73305;PMS5003;61530;51.158;0.880;2023-05-07T04:17:42;27;25;15
73305;PMS5003;61530;51.158;0.880;2023-05-07T04:18:46;30;26;17
73305;PMS5003;61530;51.158;0.880;2023-05-07T04:19:49;34;28;17
73305;PMS5003;61530;51.158;0.880;2023-05-07T04:20:55;33;28;17
73305;PMS5003;61530;51.158;0.880;2023-05-07T04:21:58;30;28;16
73305;PMS5003;61530;51.158;0.880;2023-05-07T04:23:02;31;29;15
73305;PMS5003;61530;51.158;0.880;2023-05-07T04:24:05;31;26;14
73305;PMS5003;61530;51.158;0.880;2023-05-07T04:25:11;32;30;14
73305;PMS5003;61530;51.158;0.880;2023-05-07T04:26:15;29;26;18
73305;PMS5003;61530;51.158;0.880;2023-05-07T04:27:18;29;27;15
73305;PMS5003;61530;51.158;0.880;2023-05-07T04:28:21;29;25;14
73305;PMS5003;61530;51.158;0.880;2023-05-07T04:29:27;29;27;16
73305;PMS5003;61530;51.158;0.880;2023-05-07T04:30:30;32;30;16
73305;PMS5003;61530;51.158;0.880;2023-05-07T04:31:34;33;29;16
73305;PMS5003;61530;51.158;0.880;2023-05-07T04:32:37;31;27;18
73305;PMS5003;61530;51.158;0.880;2023-05-07T04:33:43;31;29;18
73305;PMS5003;61530;51.158;0.880;2023-05-07T04:34:46;29;24;14
73305;PMS5003;61530;51.158;0.880;2023-05-07T04:35:50;30;27;16
73305;PMS5003;61530;51.158;0.880;2023-05-07T04:36:53;31;30;17
73305;PMS5003;61530;51.158;0.880;2023-05-07T04:37:59;28;27;16
73305;PMS5003;61530;51.158;0.880;2023-05-07T04:39:02;29;27;17
73305;PMS5003;61530;51.158;0.880;2023-05-07T04:40:06;35;30;17
73305;PMS5003;61530;51.158;0.880;2023-05-07T04:41:09;30;28;16
73305;PMS5003;61530;51.158;0.880;2023-05-07T04:42:15;25;24;14
73305;PMS5003;61530;51.158;0.880;2023-05-07T04:43:18;30;28;18
73305;PMS5003;61530;51.158;0.880;2023-05-07T04:44:22;27;26;17
73305;PMS5003;61530;51.158;0.880;2023-05-07T04:45:25;29;28;16
73305;PMS5003;61530;51.158;0.880;2023-05-07T04:46:31;22;22;15
73305;PMS5003;61530;51.158;0.880;2023-05-07T04:47:34;28;26;17
73305;PMS5003;61530;51.158;0.880;2023-05-07T04:48:38;29;27;15
73305;PMS5003;61530;51.158;0.880;2023-05-07T04:49:41;30;29;14
73305;PMS5003;61530;51.158;0.880;2023-05-07T04:50:47;25;25;13
73305;PMS5003;61530;51.158;0.880;2023-05-07T04:51:50;25;25;15
73305;PMS5003;61530;51.158;0.880;2023-05-07T04:52:54;29;26;14
73305;PMS5003;61530;51.158;0.880;2023-05-07T04:53:57;29;28;17
73305;PMS5003;61530;51.158;0.880;2023-05-07T04:55:03;29;27;16
73305;PMS5003;61530;51.158;0.880;2023-05-07T04:56:06;28;24;16
73305;PMS5003;61530;51.158;0.880;2023-05-07T04:57:10;27;26;13
73305;PMS5003;61530;51.158;0.880;2023-05-07T04:58:13;28;24;15
73305;PMS5003;61530;51.158;0.880;2023-05-07T04:59:19;32;29;15
73305;PMS5003;61530;51.158;0.880;2023-05-07T05:00:22;26;21;14
73305;PMS5003;61530;51.158;0.880;2023-05-07T05:01:28;31;28;16
73305;PMS5003;61530;51.158;0.880;2023-05-07T05:02:29;26;23;14
73305;PMS5003;61530;51.158;0.880;2023-05-07T05:03:35;37;29;16
73305;PMS5003;61530;51.158;0.880;2023-05-07T05:04:38;26;25;15
73305;PMS5003;61530;51.158;0.880;2023-05-07T05:05:42;30;27;14
73305;PMS5003;61530;51.158;0.880;2023-05-07T05:06:45;32;27;14
73305;PMS5003;61530;51.158;0.880;2023-05-07T05:07:51;23;23;14
73305;PMS5003;61530;51.158;0.880;2023-05-07T05:08:54;31;28;15
73305;PMS5003;61530;51.158;0.880;2023-05-07T05:09:58;34;26;15
73305;PMS5003;61530;51.158;0.880;2023-05-07T05:11:02;31;28;15
73305;PMS5003;61530;51.158;0.880;2023-05-07T05:12:07;21;21;13
73305;PMS5003;61530;51.158;0.880;2023-05-07T05:13:10;27;24;13
73305;PMS5003;61530;51.158;0.880;2023-05-07T05:14:14;30;27;16
73305;PMS5003;61530;51.158;0.880;2023-05-07T05:15:17;24;23;14
73305;PMS5003;61530;51.158;0.880;2023-05-07T05:16:23;26;25;12
73305;PMS5003;61530;51.158;0.880;2023-05-07T05:17:26;30;27;13
73305;PMS5003;61530;51.158;0.880;2023-05-07T05:18:30;29;27;13
73305;PMS5003;61530;51.158;0.880;2023-05-07T05:19:33;32;29;15
73305;PMS5003;61530;51.158;0.880;2023-05-07T05:20:39;29;29;15
73305;PMS5003;61530;51.158;0.880;2023-05-07T05:21:42;26;20;14
73305;PMS5003;61530;51.158;0.880;2023-05-07T05:22:46;31;27;15
73305;PMS5003;61530;51.158;0.880;2023-05-07T05:23:49;26;26;14
73305;PMS5003;61530;51.158;0.880;2023-05-07T05:24:55;27;26;13
73305;PMS5003;61530;51.158;0.880;2023-05-07T05:25:58;30;26;13
73305;PMS5003;61530;51.158;0.880;2023-05-07T05:27:02;28;28;15
73305;PMS5003;61530;51.158;0.880;2023-05-07T05:28:05;24;23;15
73305;PMS5003;61530;51.158;0.880;2023-05-07T05:29:11;25;25;15
73305;PMS5003;61530;51.158;0.880;2023-05-07T05:30:14;26;22;12
73305;PMS5003;61530;51.158;0.880;2023-05-07T05:31:18;24;23;14
73305;PMS5003;61530;51.158;0.880;2023-05-07T05:32:21;23;23;15
73305;PMS5003;61530;51.158;0.880;2023-05-07T05:33:27;24;23;14
73305;PMS5003;61530;51.158;0.880;2023-05-07T05:34:30;21;21;13
73305;PMS5003;61530;51.158;0.880;2023-05-07T05:35:34;24;21;12
73305;PMS5003;61530;51.158;0.880;2023-05-07T05:36:37;27;26;14
73305;PMS5003;61530;51.158;0.880;2023-05-07T05:37:43;25;22;12
73305;PMS5003;61530;51.158;0.880;2023-05-07T05:38:46;27;26;13
73305;PMS5003;61530;51.158;0.880;2023-05-07T05:39:50;29;23;14
73305;PMS5003;61530;51.158;0.880;2023-05-07T05:40:53;28;26;14
73305;PMS5003;61530;51.158;0.880;2023-05-07T05:41:59;29;27;15
73305;PMS5003;61530;51.158;0.880;2023-05-07T05:43:02;30;25;14
73305;PMS5003;61530;51.158;0.880;2023-05-07T05:44:06;34;33;16
73305;PMS5003;61530;51.158;0.880;2023-05-07T05:45:09;31;29;15
73305;PMS5003;61530;51.158;0.880;2023-05-07T05:46:15;33;28;16
73305;PMS5003;61530;51.158;0.880;2023-05-07T05:47:18;34;30;16
73305;PMS5003;61530;51.158;0.880;2023-05-07T05:48:22;34;29;14
73305;PMS5003;61530;51.158;0.880;2023-05-07T05:49:25;30;28;16
73305;PMS5003;61530;51.158;0.880;2023-05-07T05:50:31;29;26;15
73305;PMS5003;61530;51.158;0.880;2023-05-07T05:51:34;36;32;16
73305;PMS5003;61530;51.158;0.880;2023-05-07T05:52:38;29;23;12
73305;PMS5003;61530;51.158;0.880;2023-05-07T05:53:41;26;22;14
73305;PMS5003;61530;51.158;0.880;2023-05-07T05:54:47;25;21;12
73305;PMS5003;61530;51.158;0.880;2023-05-07T05:55:50;31;25;14
73305;PMS5003;61530;51.158;0.880;2023-05-07T05:56:54;30;24;12
73305;PMS5003;61530;51.158;0.880;2023-05-07T05:57:57;25;22;14
73305;PMS5003;61530;51.158;0.880;2023-05-07T05:59:03;30;25;13
73305;PMS5003;61530;51.158;0.880;2023-05-07T06:00:08;28;27;14
73305;PMS5003;61530;51.158;0.880;2023-05-07T06:01:10;24;24;12
73305;PMS5003;61530;51.158;0.880;2023-05-07T06:02:13;24;23;11
73305;PMS5003;61530;51.158;0.880;2023-05-07T06:03:19;21;18;11
73305;PMS5003;61530;51.158;0.880;2023-05-07T06:04:22;25;19;12
73305;PMS5003;61530;51.158;0.880;2023-05-07T06:05:26;22;20;11
73305;PMS5003;61530;51.158;0.880;2023-05-07T06:06:29;18;17;8
73305;PMS5003;61530;51.158;0.880;2023-05-07T06:07:35;29;25;13
73305;PMS5003;61530;51.158;0.880;2023-05-07T06:08:38;23;19;11
73305;PMS5003;61530;51.158;0.880;2023-05-07T06:09:42;23;22;13
73305;PMS5003;61530;51.158;0.880;2023-05-07T06:10:45;16;16;10
73305;PMS5003;61530;51.158;0.880;2023-05-07T06:11:51;20;19;8
73305;PMS5003;61530;51.158;0.880;2023-05-07T06:12:54;15;14;10
73305;PMS5003;61530;51.158;0.880;2023-05-07T06:13:58;20;17;10
73305;PMS5003;61530;51.158;0.880;2023-05-07T06:15:01;17;16;9
73305;PMS5003;61530;51.158;0.880;2023-05-07T06:16:07;20;18;9
73305;PMS5003;61530;51.158;0.880;2023-05-07T06:17:10;25;22;9
73305;PMS5003;61530;51.158;0.880;2023-05-07T06:18:14;18;16;10
73305;PMS5003;61530;51.158;0.880;2023-05-07T06:19:17;21;17;9
73305;PMS5003;61530;51.158;0.880;2023-05-07T06:20:23;19;18;10
73305;PMS5003;61530;51.158;0.880;2023-05-07T06:21:26;19;19;10
73305;PMS5003;61530;51.158;0.880;2023-05-07T06:22:30;16;16;8
73305;PMS5003;61530;51.158;0.880;2023-05-07T06:23:33;20;20;9
73305;PMS5003;61530;51.158;0.880;2023-05-07T06:24:39;22;21;12
73305;PMS5003;61530;51.158;0.880;2023-05-07T06:25:45;19;18;11
73305;PMS5003;61530;51.158;0.880;2023-05-07T06:26:46;23;20;12
73305;PMS5003;61530;51.158;0.880;2023-05-07T06:27:49;28;25;12
73305;PMS5003;61530;51.158;0.880;2023-05-07T06:28:55;22;21;11
73305;PMS5003;61530;51.158;0.880;2023-05-07T06:29:58;23;22;11
73305;PMS5003;61530;51.158;0.880;2023-05-07T06:31:18;18;16;8
73305;PMS5003;61530;51.158;0.880;2023-05-07T06:32:06;20;17;8
73305;PMS5003;61530;51.158;0.880;2023-05-07T06:33:11;21;17;10
73305;PMS5003;61530;51.158;0.880;2023-05-07T06:34:14;20;20;10
73305;PMS5003;61530;51.158;0.880;2023-05-07T06:35:18;23;19;10
73305;PMS5003;61530;51.158;0.880;2023-05-07T06:36:21;23;20;10
73305;PMS5003;61530;51.158;0.880;2023-05-07T06:37:27;14;14;9
73305;PMS5003;61530;51.158;0.880;2023-05-07T06:38:30;17;14;8
73305;PMS5003;61530;51.158;0.880;2023-05-07T06:39:34;14;12;7
73305;PMS5003;61530;51.158;0.880;2023-05-07T06:40:37;13;11;7
73305;PMS5003;61530;51.158;0.880;2023-05-07T06:41:43;17;15;8
73305;PMS5003;61530;51.158;0.880;2023-05-07T06:42:46;23;19;9
73305;PMS5003;61530;51.158;0.880;2023-05-07T06:43:50;23;20;8
73305;PMS5003;61530;51.158;0.880;2023-05-07T06:44:53;15;15;8
73305;PMS5003;61530;51.158;0.880;2023-05-07T06:45:59;24;19;10
73305;PMS5003;61530;51.158;0.880;2023-05-07T06:47:02;18;14;8
73305;PMS5003;61530;51.158;0.880;2023-05-07T06:48:06;17;15;8
73305;PMS5003;61530;51.158;0.880;2023-05-07T06:49:09;15;14;8
73305;PMS5003;61530;51.158;0.880;2023-05-07T06:50:15;14;14;9
73305;PMS5003;61530;51.158;0.880;2023-05-07T06:51:18;16;13;8